Time;durP1;ratioP1;P1;durP2;ratioP2;P2;SDS_P1;SDS_P2;PMS_P1;PMS_P2;Temp;Humidity;BMP_temperature;BMP_pressure;BME280_temperature;BME280_humidity;BME280_pressure;Samples;Min_cycle;Max_cycle;Signal;HPM_P1;HPM_P2
2022/01/11 00:01:44;;;;;;;;;;;1.70;99.90;;;;;;5033553;28;20348;-66
2022/01/11 00:04:11;;;;;;;;;;;1.70;99.90;;;;;;5033654;28;19905;-66
2022/01/11 00:06:47;;;;;;;;;;;1.70;99.90;;;;;;5033928;28;19909;-66
2022/01/11 00:09:22;;;;;;;;;;;1.70;99.90;;;;;;5033973;28;20299;-66
2022/01/11 00:11:48;;;;;;;;;;;1.80;99.90;;;;;;5033790;28;20350;-66
2022/01/11 00:14:14;;;;;;;;;;;1.80;99.90;;;;;;5034135;28;19905;-66
2022/01/11 00:16:40;;;;;;;;;;;1.80;99.90;;;;;;5033531;28;20311;-66
2022/01/11 00:19:06;;;;;;;;;;;1.90;99.90;;;;;;5033985;28;19909;-65
2022/01/11 00:21:33;;;;;;;;;;;1.80;99.90;;;;;;5034107;28;19999;-66
2022/01/11 00:26:42;;;;;;;;;;;1.70;99.90;;;;;;5038224;28;19955;-65
2022/01/11 00:29:08;;;;;;;;;;;1.60;99.90;;;;;;5037875;28;19905;-65
2022/01/11 00:31:33;;;;;;;;;;;1.50;99.90;;;;;;5037343;28;19940;-65
2022/01/11 00:34:02;;;;;;;;;;;1.50;99.90;;;;;;5038238;28;19912;-66
2022/01/11 00:36:40;;;;;;;;;;;1.50;99.90;;;;;;5036172;28;20017;-66
2022/01/11 00:39:06;;;;;;;;;;;1.40;99.90;;;;;;5036126;28;20370;-66
2022/01/11 00:41:31;;;;;;;;;;;1.40;99.90;;;;;;5037478;28;20416;-66
2022/01/11 00:43:57;;;;;;;;;;;1.40;99.90;;;;;;5037597;28;19936;-67
2022/01/11 00:46:22;;;;;;;;;;;1.40;99.90;;;;;;5037463;28;19951;-65
2022/01/11 00:48:48;;;;;;;;;;;1.40;99.90;;;;;;5037220;28;19912;-66
2022/01/11 00:51:13;;;;;;;;;;;1.40;99.90;;;;;;5037450;28;20003;-66
2022/01/11 00:53:40;;;;;;;;;;;1.40;99.90;;;;;;5037347;28;19988;-66
2022/01/11 00:56:05;;;;;;;;;;;1.40;99.90;;;;;;5037049;28;20000;-65
2022/01/11 00:58:31;;;;;;;;;;;1.30;99.90;;;;;;5035816;28;20012;-65
2022/01/11 01:00:56;;;;;;;;;;;1.30;99.90;;;;;;5037086;28;19917;-66
2022/01/11 01:03:22;;;;;;;;;;;1.30;99.90;;;;;;5035568;28;19944;-65
2022/01/11 01:05:48;;;;;;;;;;;1.30;99.90;;;;;;5037148;28;19905;-65
2022/01/11 01:08:13;;;;;;;;;;;1.30;99.90;;;;;;5037150;28;19905;-65
2022/01/11 01:10:45;;;;;;;;;;;1.30;99.90;;;;;;5036809;28;19912;-65
2022/01/11 01:13:17;;;;;;;;;;;1.30;99.90;;;;;;5035165;28;20051;-65
2022/01/11 01:15:43;;;;;;;;;;;1.30;99.90;;;;;;5036984;28;19963;-66
2022/01/11 01:18:14;;;;;;;;;;;1.30;99.90;;;;;;5035619;28;20366;-66
2022/01/11 01:20:40;;;;;;;;;;;1.30;99.90;;;;;;5036563;28;19940;-64
2022/01/11 01:23:05;;;;;;;;;;;1.30;99.90;;;;;;5036390;28;19951;-66
2022/01/11 01:25:31;;;;;;;;;;;1.30;99.90;;;;;;5036848;28;19959;-66
2022/01/11 01:27:56;;;;;;;;;;;1.30;99.90;;;;;;5036383;28;20320;-65
2022/01/11 01:30:22;;;;;;;;;;;1.30;99.90;;;;;;5035087;28;19905;-65
2022/01/11 01:32:48;;;;;;;;;;;1.30;99.90;;;;;;5036193;28;19963;-66
2022/01/11 01:35:15;;;;;;;;;;;1.20;99.90;;;;;;5035617;28;20323;-65
2022/01/11 01:37:41;;;;;;;;;;;1.20;99.90;;;;;;5036284;28;20007;-65
2022/01/11 01:40:07;;;;;;;;;;;1.20;99.90;;;;;;5036181;28;19944;-65
2022/01/11 01:42:33;;;;;;;;;;;1.20;99.90;;;;;;5035937;28;20387;-65
2022/01/11 01:45:01;;;;;;;;;;;1.30;99.90;;;;;;5036047;28;19954;-66
2022/01/11 01:47:27;;;;;;;;;;;1.20;99.90;;;;;;5036001;28;20045;-66
2022/01/11 01:49:53;;;;;;;;;;;1.20;99.90;;;;;;5034719;28;19996;-65
2022/01/11 01:52:18;;;;;;;;;;;1.30;99.90;;;;;;5035924;28;19905;-65
2022/01/11 01:54:44;;;;;;;;;;;1.20;99.90;;;;;;5036098;28;19912;-66
2022/01/11 01:57:10;;;;;;;;;;;1.20;99.90;;;;;;5034625;28;20385;-66
2022/01/11 01:59:35;;;;;;;;;;;1.20;99.90;;;;;;5034570;28;19932;-66
2022/01/11 02:02:01;;;;;;;;;;;1.20;99.90;;;;;;5035658;28;19906;-67
2022/01/11 02:04:27;;;;;;;;;;;1.20;99.90;;;;;;5035771;28;20031;-66
2022/01/11 02:06:53;;;;;;;;;;;1.30;99.90;;;;;;5035985;28;20433;-66
2022/01/11 02:09:19;;;;;;;;;;;1.30;99.90;;;;;;5034375;28;20000;-66
2022/01/11 02:11:48;;;;;;;;;;;1.30;99.90;;;;;;5035557;28;19905;-64
2022/01/11 02:14:14;;;;;;;;;;;1.30;99.90;;;;;;5034548;28;19905;-66
2022/01/11 02:16:39;;;;;;;;;;;1.40;99.90;;;;;;5035466;28;19912;-66
2022/01/11 02:19:05;;;;;;;;;;;1.40;99.90;;;;;;5035470;28;19909;-65
2022/01/11 02:21:30;;;;;;;;;;;1.40;99.90;;;;;;5035486;28;19913;-64
2022/01/11 02:23:57;;;;;;;;;;;1.40;99.90;;;;;;5035474;28;19905;-67
2022/01/11 02:26:23;;;;;;;;;;;1.30;99.90;;;;;;5034116;28;19912;-67
2022/01/11 02:28:48;;;;;;;;;;;1.30;99.90;;;;;;5035412;28;19905;-66
2022/01/11 02:31:14;;;;;;;;;;;1.30;99.90;;;;;;5035383;28;19905;-67
2022/01/11 02:33:44;;;;;;;;;;;1.30;99.90;;;;;;5035330;28;19954;-65
2022/01/11 02:36:22;;;;;;;;;;;1.30;99.90;;;;;;5035829;28;20366;-66
2022/01/11 02:38:49;;;;;;;;;;;1.20;99.90;;;;;;5035242;28;20028;-65
2022/01/11 02:41:15;;;;;;;;;;;1.20;99.90;;;;;;5035343;28;19905;-64
2022/01/11 02:43:41;;;;;;;;;;;1.20;99.90;;;;;;5035216;28;19955;-65
2022/01/11 02:46:07;;;;;;;;;;;1.10;99.90;;;;;;5034913;28;19948;-66
2022/01/11 02:48:32;;;;;;;;;;;1.20;99.90;;;;;;5034646;28;20297;-66
2022/01/11 02:50:58;;;;;;;;;;;1.10;99.90;;;;;;5035284;28;19962;-66
2022/01/11 02:53:23;;;;;;;;;;;1.00;99.90;;;;;;5033467;28;19905;-66
2022/01/11 02:55:49;;;;;;;;;;;1.00;99.90;;;;;;5035183;28;19905;-65
2022/01/11 02:58:15;;;;;;;;;;;1.00;99.90;;;;;;5035074;28;19974;-66
2022/01/11 03:00:40;;;;;;;;;;;1.00;99.90;;;;;;5034710;28;19905;-66
2022/01/11 03:03:11;;;;;;;;;;;1.10;99.90;;;;;;5034618;28;20382;-66
2022/01/11 03:05:37;;;;;;;;;;;1.10;99.90;;;;;;5036448;28;20428;-66
2022/01/11 03:08:02;;;;;;;;;;;1.10;99.90;;;;;;5037323;28;19905;-65
2022/01/11 03:10:32;;;;;;;;;;;1.20;99.90;;;;;;5034660;28;19912;-67
2022/01/11 03:13:02;;;;;;;;;;;1.20;99.90;;;;;;5034604;28;19939;-66
2022/01/11 03:15:27;;;;;;;;;;;1.20;99.90;;;;;;5034559;28;19909;-64
2022/01/11 03:17:53;;;;;;;;;;;1.20;99.90;;;;;;5034803;28;19909;-66
2022/01/11 03:20:18;;;;;;;;;;;1.30;99.90;;;;;;5033140;28;19947;-65
2022/01/11 03:22:44;;;;;;;;;;;1.20;99.90;;;;;;5036918;28;19912;-66
2022/01/11 03:25:10;;;;;;;;;;;1.20;99.90;;;;;;5037799;28;20289;-66
2022/01/11 03:27:35;;;;;;;;;;;1.20;99.90;;;;;;5034071;28;19993;-67
2022/01/11 03:30:01;;;;;;;;;;;1.20;99.90;;;;;;5034059;28;20263;-65
2022/01/11 03:32:26;;;;;;;;;;;1.20;99.90;;;;;;5033769;28;19952;-66
2022/01/11 03:34:52;;;;;;;;;;;1.20;99.90;;;;;;5033907;28;19959;-66
2022/01/11 03:37:20;;;;;;;;;;;1.20;99.90;;;;;;5034322;28;19935;-65
2022/01/11 03:39:45;;;;;;;;;;;1.20;99.90;;;;;;5032740;28;20228;-65
2022/01/11 03:42:11;;;;;;;;;;;1.10;99.90;;;;;;5032485;28;20012;-64
2022/01/11 03:44:36;;;;;;;;;;;1.20;99.90;;;;;;5033799;28;19905;-64
2022/01/11 03:47:02;;;;;;;;;;;1.10;99.90;;;;;;5033952;28;19904;-65
2022/01/11 03:49:28;;;;;;;;;;;1.00;99.90;;;;;;5033905;28;19909;-65
2022/01/11 03:51:53;;;;;;;;;;;1.00;99.90;;;;;;5033870;28;19905;-65
2022/01/11 03:54:29;;;;;;;;;;;0.90;99.90;;;;;;5033844;28;20374;-65
2022/01/11 03:56:55;;;;;;;;;;;0.90;99.90;;;;;;5033635;28;19911;-64
2022/01/11 03:59:21;;;;;;;;;;;0.90;99.90;;;;;;5033155;28;19909;-65
2022/01/11 04:01:47;;;;;;;;;;;0.90;99.90;;;;;;5033448;28;19997;-66
2022/01/11 04:04:14;;;;;;;;;;;0.90;99.90;;;;;;5033358;28;19944;-65
2022/01/11 04:06:40;;;;;;;;;;;0.80;99.90;;;;;;5036331;28;19904;-65
2022/01/11 04:09:06;;;;;;;;;;;0.80;99.90;;;;;;5037178;28;19935;-65
2022/01/11 04:11:32;;;;;;;;;;;0.80;99.90;;;;;;5034538;28;19905;-65
2022/01/11 04:13:58;;;;;;;;;;;0.80;99.90;;;;;;5033400;28;20378;-66
2022/01/11 04:16:25;;;;;;;;;;;0.80;99.90;;;;;;5033320;28;19940;-65
2022/01/11 04:18:50;;;;;;;;;;;0.80;99.90;;;;;;5033576;28;19913;-65
2022/01/11 04:21:16;;;;;;;;;;;0.80;99.90;;;;;;5033385;28;19951;-65
2022/01/11 04:23:41;;;;;;;;;;;0.80;99.90;;;;;;5033263;28;19913;-65
2022/01/11 04:26:07;;;;;;;;;;;0.90;99.90;;;;;;5033709;28;19905;-65
2022/01/11 04:28:32;;;;;;;;;;;0.90;99.90;;;;;;5033168;28;20424;-65
2022/01/11 04:30:59;;;;;;;;;;;0.90;99.90;;;;;;5033281;28;19959;-65
2022/01/11 04:33:26;;;;;;;;;;;1.00;99.90;;;;;;5033385;28;20442;-65
2022/01/11 04:35:52;;;;;;;;;;;1.00;99.90;;;;;;5033576;28;19905;-65
2022/01/11 04:38:18;;;;;;;;;;;1.10;99.90;;;;;;5031698;28;19927;-64
2022/01/11 04:40:43;;;;;;;;;;;1.10;99.90;;;;;;5033382;28;20000;-64
2022/01/11 04:43:09;;;;;;;;;;;1.20;99.90;;;;;;5038742;28;19963;-63
2022/01/11 04:45:34;;;;;;;;;;;1.20;99.90;;;;;;5037632;28;19905;-65
2022/01/11 04:48:00;;;;;;;;;;;1.30;99.90;;;;;;5033243;28;19909;-64
2022/01/11 04:50:26;;;;;;;;;;;1.30;99.90;;;;;;5033660;28;19951;-64
2022/01/11 04:52:52;;;;;;;;;;;1.30;99.90;;;;;;5033159;28;19905;-65
2022/01/11 04:55:18;;;;;;;;;;;1.30;99.90;;;;;;5033135;28;19909;-65
2022/01/11 04:57:44;;;;;;;;;;;1.30;99.90;;;;;;5033287;28;19912;-65
2022/01/11 05:00:10;;;;;;;;;;;1.30;99.90;;;;;;5033197;28;19958;-66
2022/01/11 05:02:35;;;;;;;;;;;1.30;99.90;;;;;;5033022;28;19911;-67
2022/01/11 05:05:01;;;;;;;;;;;1.30;99.90;;;;;;5032889;28;20320;-67
2022/01/11 05:07:26;;;;;;;;;;;1.40;99.90;;;;;;5033299;28;20009;-67
2022/01/11 05:09:53;;;;;;;;;;;1.40;99.90;;;;;;5033490;28;19912;-67
2022/01/11 05:12:19;;;;;;;;;;;1.40;99.90;;;;;;5036733;28;19988;-67
2022/01/11 05:14:44;;;;;;;;;;;1.40;99.90;;;;;;5036810;28;20002;-68
2022/01/11 05:17:10;;;;;;;;;;;1.40;99.90;;;;;;5036825;28;19905;-67
2022/01/11 05:19:35;;;;;;;;;;;1.50;99.90;;;;;;5036513;28;19948;-68
2022/01/11 05:22:01;;;;;;;;;;;1.50;99.90;;;;;;5036300;28;20003;-68
2022/01/11 05:24:27;;;;;;;;;;;1.50;99.90;;;;;;5036203;28;19912;-67
2022/01/11 05:26:53;;;;;;;;;;;1.50;99.90;;;;;;5036277;28;19905;-68
2022/01/11 05:29:19;;;;;;;;;;;1.50;99.90;;;;;;5035012;28;20364;-67
2022/01/11 05:31:44;;;;;;;;;;;1.50;99.90;;;;;;5035787;28;19948;-66
2022/01/11 05:34:10;;;;;;;;;;;1.40;99.90;;;;;;5036634;28;19905;-66
2022/01/11 05:36:35;;;;;;;;;;;1.40;99.90;;;;;;5036073;28;19905;-65
2022/01/11 05:39:01;;;;;;;;;;;1.40;99.90;;;;;;5035916;28;19996;-67
2022/01/11 05:41:26;;;;;;;;;;;1.40;99.90;;;;;;5037424;28;20000;-67
2022/01/11 05:43:52;;;;;;;;;;;1.40;99.90;;;;;;5035060;28;19904;-67
2022/01/11 05:46:17;;;;;;;;;;;1.40;99.90;;;;;;5035846;28;19909;-65
2022/01/11 05:48:45;;;;;;;;;;;1.50;99.90;;;;;;5035965;28;20393;-66
2022/01/11 05:51:11;;;;;;;;;;;1.40;99.90;;;;;;5036226;28;19905;-68
2022/01/11 05:53:37;;;;;;;;;;;1.50;99.90;;;;;;5035861;28;19905;-62
2022/01/11 05:56:02;;;;;;;;;;;1.40;99.90;;;;;;5036110;28;20257;-62
2022/01/11 05:58:28;;;;;;;;;;;1.40;99.90;;;;;;5035992;28;19909;-62
2022/01/11 06:00:53;;;;;;;;;;;1.40;99.90;;;;;;5036163;28;19905;-66
2022/01/11 06:03:19;;;;;;;;;;;1.50;99.90;;;;;;5035556;28;19905;-68
2022/01/11 06:05:44;;;;;;;;;;;1.50;99.90;;;;;;5035572;28;19952;-67
2022/01/11 06:08:10;;;;;;;;;;;1.50;99.90;;;;;;5036096;28;19912;-67
2022/01/11 06:10:36;;;;;;;;;;;1.50;99.90;;;;;;5036141;28;19905;-67
2022/01/11 06:13:02;;;;;;;;;;;1.50;99.90;;;;;;5035670;28;20381;-67
2022/01/11 06:15:29;;;;;;;;;;;1.60;99.90;;;;;;5035407;28;19909;-66
2022/01/11 06:17:54;;;;;;;;;;;1.60;99.90;;;;;;5035567;28;19932;-66
2022/01/11 06:20:20;;;;;;;;;;;1.60;99.90;;;;;;5035537;28;20346;-67
2022/01/11 06:22:45;;;;;;;;;;;1.60;99.90;;;;;;5033920;28;20358;-68
2022/01/11 06:25:11;;;;;;;;;;;1.60;99.90;;;;;;5035803;28;19929;-68
2022/01/11 06:27:40;;;;;;;;;;;1.60;99.90;;;;;;5038470;28;19905;-66
2022/01/11 06:30:09;;;;;;;;;;;1.70;99.90;;;;;;5037058;28;19952;-66
2022/01/11 06:32:36;;;;;;;;;;;1.70;99.90;;;;;;5034927;28;19913;-65
2022/01/11 06:35:02;;;;;;;;;;;1.70;99.90;;;;;;5035277;28;19905;-66
2022/01/11 06:37:29;;;;;;;;;;;1.80;99.90;;;;;;5034811;28;20251;-65
2022/01/11 06:39:54;;;;;;;;;;;1.80;99.90;;;;;;5033952;28;19916;-66
2022/01/11 06:42:20;;;;;;;;;;;1.80;99.90;;;;;;5034853;28;19955;-67
2022/01/11 06:44:46;;;;;;;;;;;1.90;99.90;;;;;;5033116;28;20358;-65
2022/01/11 06:47:11;;;;;;;;;;;2.00;99.90;;;;;;5034320;28;19912;-66
2022/01/11 06:49:37;;;;;;;;;;;2.00;99.90;;;;;;5032632;28;20011;-68
2022/01/11 06:52:03;;;;;;;;;;;1.90;99.90;;;;;;5034762;28;20409;-67
2022/01/11 06:54:29;;;;;;;;;;;1.90;99.90;;;;;;5035030;28;19955;-68
2022/01/11 06:56:54;;;;;;;;;;;2.00;99.90;;;;;;5033490;28;19905;-68
2022/01/11 06:59:20;;;;;;;;;;;2.00;99.90;;;;;;5036079;28;20263;-66
2022/01/11 07:01:46;;;;;;;;;;;2.00;99.90;;;;;;5037535;28;19971;-68
2022/01/11 07:04:11;;;;;;;;;;;2.10;99.90;;;;;;5034503;28;19905;-67
2022/01/11 07:06:37;;;;;;;;;;;2.00;99.90;;;;;;5034762;28;19909;-68
2022/01/11 07:09:03;;;;;;;;;;;1.90;99.90;;;;;;5036229;28;19913;-67
2022/01/11 07:11:28;;;;;;;;;;;1.90;99.90;;;;;;5035123;28;19909;-68
2022/01/11 07:13:54;;;;;;;;;;;1.90;99.90;;;;;;5036056;28;19967;-66
2022/01/11 07:16:19;;;;;;;;;;;1.90;99.90;;;;;;5035220;28;19905;-67
2022/01/11 07:18:46;;;;;;;;;;;1.90;99.90;;;;;;5035097;28;19909;-66
2022/01/11 07:21:12;;;;;;;;;;;1.90;99.90;;;;;;5034824;28;19971;-65
2022/01/11 07:23:38;;;;;;;;;;;1.90;99.90;;;;;;5034915;28;19909;-67
2022/01/11 07:26:07;;;;;;;;;;;1.90;99.90;;;;;;5034639;28;19905;-67
2022/01/11 07:28:32;;;;;;;;;;;1.90;99.90;;;;;;5033602;28;19905;-67
2022/01/11 07:30:58;;;;;;;;;;;1.80;99.90;;;;;;5033209;28;19905;-67
2022/01/11 07:33:23;;;;;;;;;;;1.90;99.90;;;;;;5033639;28;19932;-68
2022/01/11 07:35:49;;;;;;;;;;;1.90;99.90;;;;;;5034307;28;20041;-66
2022/01/11 07:38:15;;;;;;;;;;;1.90;99.90;;;;;;5034413;28;19915;-68
2022/01/11 07:40:40;;;;;;;;;;;2.00;99.90;;;;;;5034795;28;19909;-68
2022/01/11 07:43:07;;;;;;;;;;;2.00;99.90;;;;;;5034646;28;20005;-69
2022/01/11 07:45:32;;;;;;;;;;;2.00;99.90;;;;;;5034136;28;19905;-68
2022/01/11 07:47:58;;;;;;;;;;;1.90;99.90;;;;;;5034180;28;20309;-68
2022/01/11 07:50:23;;;;;;;;;;;1.90;99.90;;;;;;5033912;28;19984;-69
2022/01/11 07:52:50;;;;;;;;;;;1.90;99.90;;;;;;5032491;28;19906;-68
2022/01/11 07:55:16;;;;;;;;;;;1.90;99.90;;;;;;5034029;28;19995;-68
2022/01/11 07:57:41;;;;;;;;;;;2.00;99.90;;;;;;5032580;28;20352;-68
2022/01/11 08:00:07;;;;;;;;;;;2.00;99.90;;;;;;5034220;28;19909;-69
2022/01/11 08:02:33;;;;;;;;;;;2.00;99.90;;;;;;5033103;28;19909;-69
2022/01/11 08:04:58;;;;;;;;;;;2.00;99.90;;;;;;5033231;28;19905;-66
2022/01/11 08:07:24;;;;;;;;;;;2.00;99.90;;;;;;5033839;28;19905;-65
2022/01/11 08:09:49;;;;;;;;;;;2.00;99.90;;;;;;5034090;28;19905;-66
2022/01/11 08:12:15;;;;;;;;;;;2.00;99.90;;;;;;5033809;28;19912;-67
2022/01/11 08:14:41;;;;;;;;;;;2.00;99.90;;;;;;5033960;28;19905;-65
2022/01/11 08:17:06;;;;;;;;;;;2.00;99.90;;;;;;5034010;28;19905;-65
2022/01/11 08:19:32;;;;;;;;;;;2.00;99.90;;;;;;5032545;28;19909;-65
2022/01/11 08:22:00;;;;;;;;;;;2.00;99.90;;;;;;5032551;28;19916;-65
2022/01/11 08:24:26;;;;;;;;;;;2.00;99.90;;;;;;5032532;28;20420;-67
2022/01/11 08:26:53;;;;;;;;;;;2.00;99.90;;;;;;5033086;28;19904;-68
2022/01/11 08:29:20;;;;;;;;;;;2.00;99.90;;;;;;5033802;28;19905;-67
2022/01/11 08:31:46;;;;;;;;;;;2.10;99.90;;;;;;5034268;28;19909;-65
2022/01/11 08:34:13;;;;;;;;;;;2.10;99.90;;;;;;5033748;28;19905;-66
2022/01/11 08:36:39;;;;;;;;;;;2.10;99.90;;;;;;5034405;28;20322;-66
2022/01/11 08:39:05;;;;;;;;;;;2.10;99.90;;;;;;5035019;28;19924;-65
2022/01/11 08:41:30;;;;;;;;;;;2.10;99.90;;;;;;5034618;28;19954;-66
2022/01/11 08:43:56;;;;;;;;;;;2.10;99.90;;;;;;5036504;28;19916;-65
2022/01/11 08:46:21;;;;;;;;;;;2.10;99.90;;;;;;5036467;28;20012;-64
2022/01/11 08:48:47;;;;;;;;;;;2.10;99.90;;;;;;5037987;28;19912;-65
2022/01/11 08:51:12;;;;;;;;;;;2.20;99.90;;;;;;5037285;28;19912;-64
2022/01/11 08:53:38;;;;;;;;;;;2.20;99.90;;;;;;5037845;28;19932;-65
2022/01/11 08:56:05;;;;;;;;;;;2.20;99.90;;;;;;5038109;28;20011;-65
2022/01/11 08:58:31;;;;;;;;;;;2.20;99.90;;;;;;5037682;28;19912;-65
2022/01/11 09:00:56;;;;;;;;;;;2.20;99.90;;;;;;5037152;28;20321;-65
2022/01/11 09:03:23;;;;;;;;;;;2.20;99.90;;;;;;5037141;28;20250;-65
2022/01/11 09:05:51;;;;;;;;;;;2.30;99.90;;;;;;5037199;28;19912;-65
2022/01/11 09:08:16;;;;;;;;;;;2.20;99.90;;;;;;5039473;28;19912;-64
2022/01/11 09:10:42;;;;;;;;;;;2.20;99.90;;;;;;5037596;28;19905;-64
2022/01/11 09:13:08;;;;;;;;;;;2.30;99.90;;;;;;5036766;28;19908;-64
2022/01/11 09:15:34;;;;;;;;;;;2.30;99.90;;;;;;5037610;28;19905;-65
2022/01/11 09:17:59;;;;;;;;;;;2.40;99.90;;;;;;5036741;28;20270;-65
2022/01/11 09:20:25;;;;;;;;;;;2.30;99.90;;;;;;5036713;28;19905;-65
2022/01/11 09:22:50;;;;;;;;;;;2.40;99.90;;;;;;5036544;28;19928;-65
2022/01/11 09:25:16;;;;;;;;;;;2.30;99.90;;;;;;5035063;28;19905;-64
2022/01/11 09:27:42;;;;;;;;;;;2.30;99.90;;;;;;5037089;28;19970;-65
2022/01/11 09:30:09;;;;;;;;;;;2.40;99.90;;;;;;5036819;28;20334;-64
2022/01/11 09:32:35;;;;;;;;;;;2.40;99.90;;;;;;5038141;28;19974;-64
2022/01/11 09:35:02;;;;;;;;;;;2.50;99.90;;;;;;5037190;28;19916;-65
2022/01/11 09:37:27;;;;;;;;;;;2.50;99.90;;;;;;5039009;28;19905;-65
2022/01/11 09:39:53;;;;;;;;;;;2.60;99.90;;;;;;5038122;28;19995;-65
2022/01/11 09:42:19;;;;;;;;;;;2.70;99.90;;;;;;5036571;28;19913;-65
2022/01/11 09:44:44;;;;;;;;;;;2.70;99.90;;;;;;5034687;28;19905;-65
2022/01/11 09:47:12;;;;;;;;;;;2.70;99.90;;;;;;5037772;28;19905;-65
2022/01/11 09:49:38;;;;;;;;;;;2.70;99.90;;;;;;5037275;28;19940;-65
2022/01/11 09:52:07;;;;;;;;;;;2.80;99.90;;;;;;5037773;28;19912;-65
2022/01/11 09:54:33;;;;;;;;;;;2.90;99.90;;;;;;5037562;28;19905;-64
2022/01/11 09:56:59;;;;;;;;;;;3.00;99.90;;;;;;5039044;28;19912;-65
2022/01/11 09:59:24;;;;;;;;;;;3.00;99.90;;;;;;5036621;28;19909;-65
2022/01/11 10:01:50;;;;;;;;;;;3.10;99.90;;;;;;5036404;28;19927;-64
2022/01/11 10:04:18;;;;;;;;;;;3.20;99.90;;;;;;5036698;28;19908;-65
2022/01/11 10:06:51;;;;;;;;;;;3.30;99.90;;;;;;5036026;28;20281;-65
2022/01/11 10:09:21;;;;;;;;;;;3.30;99.90;;;;;;5036321;28;19932;-65
2022/01/11 10:11:57;;;;;;;;;;;3.40;99.90;;;;;;5034500;28;20021;-65
2022/01/11 10:14:25;;;;;;;;;;;3.50;99.90;;;;;;5035796;28;19935;-65
2022/01/11 10:17:04;;;;;;;;;;;3.60;99.90;;;;;;5035741;28;20290;-64
2022/01/11 10:19:29;;;;;;;;;;;3.60;99.90;;;;;;5035680;28;20080;-64
2022/01/11 10:21:55;;;;;;;;;;;3.60;99.90;;;;;;5035814;28;20000;-64
2022/01/11 10:24:20;;;;;;;;;;;3.70;99.90;;;;;;5035807;28;19954;-65
2022/01/11 10:26:46;;;;;;;;;;;3.70;99.90;;;;;;5036241;28;19905;-65
2022/01/11 10:29:28;;;;;;;;;;;3.80;99.90;;;;;;5036128;28;19917;-64
2022/01/11 10:31:55;;;;;;;;;;;3.80;99.90;;;;;;5035093;28;19920;-65
2022/01/11 10:34:33;;;;;;;;;;;3.80;99.90;;;;;;5035464;28;19909;-65
2022/01/11 10:37:01;;;;;;;;;;;3.80;99.90;;;;;;5036483;28;19936;-65
2022/01/11 10:39:36;;;;;;;;;;;3.90;99.90;;;;;;5035561;28;20366;-65
2022/01/11 10:42:03;;;;;;;;;;;3.80;99.90;;;;;;5035437;28;19909;-65
2022/01/11 10:44:47;;;;;;;;;;;3.80;99.90;;;;;;5034198;28;20397;-64
2022/01/11 10:47:17;;;;;;;;;;;3.90;99.90;;;;;;5033976;28;19912;-68
2022/01/11 10:49:42;;;;;;;;;;;4.10;99.90;;;;;;5034958;28;19970;-68
2022/01/11 10:52:25;;;;;;;;;;;4.10;99.90;;;;;;5035097;28;20362;-65
2022/01/11 10:54:51;;;;;;;;;;;4.20;99.90;;;;;;5034972;28;19905;-65
2022/01/11 10:57:25;;;;;;;;;;;4.30;99.90;;;;;;5035655;28;19935;-66
2022/01/11 11:00:10;;;;;;;;;;;4.30;99.90;;;;;;5034950;28;19909;-67
2022/01/11 11:02:36;;;;;;;;;;;4.30;99.90;;;;;;5034728;28;19905;-66
2022/01/11 11:05:11;;;;;;;;;;;4.50;99.90;;;;;;5034916;28;19905;-66
2022/01/11 11:07:36;;;;;;;;;;;4.50;99.90;;;;;;5034103;28;20465;-67
2022/01/11 11:10:02;;;;;;;;;;;4.60;99.90;;;;;;5033522;28;19909;-67
2022/01/11 11:12:28;;;;;;;;;;;4.60;99.90;;;;;;5034709;28;19932;-66
2022/01/11 11:14:54;;;;;;;;;;;4.80;99.90;;;;;;5034950;28;19905;-67
2022/01/11 11:17:30;;;;;;;;;;;4.80;99.90;;;;;;5033096;28;19940;-66
2022/01/11 11:19:56;;;;;;;;;;;4.80;99.90;;;;;;5034142;28;20377;-65
2022/01/11 11:22:22;;;;;;;;;;;4.80;99.90;;;;;;5034077;28;19905;-65
2022/01/11 11:24:47;;;;;;;;;;;4.90;99.90;;;;;;5034673;28;19956;-66
2022/01/11 11:27:15;;;;;;;;;;;5.10;99.90;;;;;;5034313;28;19940;-68
2022/01/11 11:29:42;;;;;;;;;;;5.30;99.90;;;;;;5034106;28;20377;-66
2022/01/11 11:32:07;;;;;;;;;;;5.30;99.90;;;;;;5034312;28;19935;-65
2022/01/11 11:34:33;;;;;;;;;;;5.50;99.90;;;;;;5033287;28;20354;-66
2022/01/11 11:37:04;;;;;;;;;;;5.70;99.90;;;;;;5034658;28;19981;-65
2022/01/11 11:39:30;;;;;;;;;;;5.80;99.90;;;;;;5034331;28;19996;-67
2022/01/11 11:41:57;;;;;;;;;;;5.80;99.90;;;;;;5036166;28;19955;-66
2022/01/11 11:44:24;;;;;;;;;;;5.90;99.90;;;;;;5034864;28;20307;-65
2022/01/11 11:47:00;;;;;;;;;;;6.00;99.90;;;;;;5035039;28;19912;-66
2022/01/11 11:49:43;;;;;;;;;;;6.00;99.90;;;;;;5035199;28;19971;-66
2022/01/11 11:52:23;;;;;;;;;;;6.00;99.90;;;;;;5032678;28;19909;-66
2022/01/11 11:54:57;;;;;;;;;;;6.00;99.90;;;;;;5034738;28;19963;-65
2022/01/11 11:57:24;;;;;;;;;;;6.00;99.90;;;;;;5033790;28;19912;-67
2022/01/11 11:59:53;;;;;;;;;;;6.10;99.90;;;;;;5032177;28;19912;-66
2022/01/11 12:02:40;;;;;;;;;;;6.20;99.90;;;;;;5034184;28;19913;-65
2022/01/11 12:05:12;;;;;;;;;;;6.20;99.90;;;;;;5034058;28;19909;-65
2022/01/11 12:07:46;;;;;;;;;;;6.10;99.90;;;;;;5033837;28;19909;-64
2022/01/11 12:10:16;;;;;;;;;;;6.00;99.90;;;;;;5033489;28;19991;-66
2022/01/11 12:12:51;;;;;;;;;;;6.00;99.90;;;;;;5033162;28;19905;-65
2022/01/11 12:15:33;;;;;;;;;;;6.00;99.90;;;;;;5033704;28;20366;-66
2022/01/11 12:17:58;;;;;;;;;;;6.00;99.90;;;;;;5033364;28;19909;-66
2022/01/11 12:20:42;;;;;;;;;;;6.00;99.90;;;;;;5033114;28;19905;-64
2022/01/11 12:23:08;;;;;;;;;;;6.00;99.90;;;;;;5033589;28;19905;-64
2022/01/11 12:25:42;;;;;;;;;;;6.10;99.90;;;;;;5033698;28;20350;-64
2022/01/11 12:28:13;;;;;;;;;;;6.00;99.90;;;;;;5033831;28;19905;-64
2022/01/11 12:30:38;;;;;;;;;;;6.00;99.90;;;;;;5033820;28;20349;-65
2022/01/11 12:33:09;;;;;;;;;;;6.10;99.90;;;;;;5033318;28;19920;-64
2022/01/11 12:35:49;;;;;;;;;;;6.10;99.90;;;;;;5033804;28;19905;-64
2022/01/11 12:38:14;;;;;;;;;;;6.10;99.90;;;;;;5033349;28;19954;-64
2022/01/11 12:40:40;;;;;;;;;;;6.10;99.90;;;;;;5033379;28;19912;-64
2022/01/11 12:43:17;;;;;;;;;;;6.30;99.90;;;;;;5033498;28;19964;-65
2022/01/11 12:46:01;;;;;;;;;;;6.30;99.90;;;;;;5035299;28;19905;-65
2022/01/11 12:51:11;;;;;;;;;;;6.40;99.90;;;;;;5034672;28;19905;-65
2022/01/11 12:53:37;;;;;;;;;;;6.30;99.90;;;;;;5033832;28;19988;-65
2022/01/11 12:56:03;;;;;;;;;;;6.10;99.90;;;;;;5035021;28;19998;-64
2022/01/11 12:58:29;;;;;;;;;;;6.10;99.90;;;;;;5033387;28;20399;-65
2022/01/11 13:00:55;;;;;;;;;;;6.10;99.90;;;;;;5033433;28;19905;-66
2022/01/11 13:03:21;;;;;;;;;;;6.10;99.90;;;;;;5033304;28;20008;-65
2022/01/11 13:05:51;;;;;;;;;;;6.10;99.90;;;;;;5032022;28;19940;-68
2022/01/11 13:08:29;;;;;;;;;;;6.20;99.90;;;;;;5036486;28;19905;-68
2022/01/11 13:10:55;;;;;;;;;;;6.10;99.90;;;;;;5034616;28;19913;-67
2022/01/11 13:13:22;;;;;;;;;;;6.10;99.90;;;;;;5033153;28;19905;-67
2022/01/11 13:15:49;;;;;;;;;;;6.10;99.90;;;;;;5032328;28;20373;-66
2022/01/11 13:18:16;;;;;;;;;;;6.10;99.90;;;;;;5035399;28;19908;-68
2022/01/11 13:20:42;;;;;;;;;;;6.20;99.90;;;;;;5035031;28;19932;-67
2022/01/11 13:23:20;;;;;;;;;;;6.20;99.90;;;;;;5035271;28;19916;-68
2022/01/11 13:25:46;;;;;;;;;;;6.10;99.90;;;;;;5031992;28;20329;-67
2022/01/11 13:28:12;;;;;;;;;;;6.10;99.90;;;;;;5033707;28;20329;-66
2022/01/11 13:30:45;;;;;;;;;;;6.10;99.90;;;;;;5033167;28;19909;-67
2022/01/11 13:33:21;;;;;;;;;;;6.00;99.90;;;;;;5036835;28;19942;-68
2022/01/11 13:35:46;;;;;;;;;;;6.00;99.90;;;;;;5037256;28;20302;-69
2022/01/11 13:38:12;;;;;;;;;;;6.00;99.90;;;;;;5036412;28;19924;-67
2022/01/11 13:40:41;;;;;;;;;;;6.10;99.90;;;;;;5036760;28;19909;-67
2022/01/11 13:43:08;;;;;;;;;;;6.00;99.90;;;;;;5036347;28;19945;-66
2022/01/11 13:45:38;;;;;;;;;;;6.00;99.90;;;;;;5036859;28;20398;-68
2022/01/11 13:48:08;;;;;;;;;;;6.00;99.90;;;;;;5037000;28;20371;-66
2022/01/11 13:50:45;;;;;;;;;;;6.00;99.90;;;;;;5036915;28;19909;-65
2022/01/11 13:53:18;;;;;;;;;;;6.10;99.90;;;;;;5036613;28;19928;-65
2022/01/11 13:55:44;;;;;;;;;;;6.00;99.90;;;;;;5037012;28;20302;-66
2022/01/11 13:58:09;;;;;;;;;;;6.00;99.90;;;;;;5034676;28;19915;-65
2022/01/11 14:00:36;;;;;;;;;;;5.90;99.90;;;;;;5036448;28;19905;-66
2022/01/11 14:03:15;;;;;;;;;;;6.00;99.90;;;;;;5035926;28;19909;-66
2022/01/11 14:05:40;;;;;;;;;;;6.00;99.90;;;;;;5036025;28;19925;-66
2022/01/11 14:08:09;;;;;;;;;;;6.00;99.90;;;;;;5036305;28;20501;-67
2022/01/11 14:10:37;;;;;;;;;;;6.00;99.90;;;;;;5036201;28;19905;-66
2022/01/11 14:13:06;;;;;;;;;;;6.00;99.90;;;;;;5035921;28;19939;-66
2022/01/11 14:15:32;;;;;;;;;;;6.00;99.90;;;;;;5035723;28;19916;-66
2022/01/11 14:17:58;;;;;;;;;;;5.90;99.90;;;;;;5035767;28;19909;-67
2022/01/11 14:20:25;;;;;;;;;;;5.90;99.90;;;;;;5035686;28;19905;-67
2022/01/11 14:22:54;;;;;;;;;;;5.90;99.90;;;;;;5035885;28;19955;-67
2022/01/11 14:25:20;;;;;;;;;;;6.00;99.90;;;;;;5035394;28;20004;-67
2022/01/11 14:27:55;;;;;;;;;;;5.90;99.90;;;;;;5035887;28;20354;-66
2022/01/11 14:30:21;;;;;;;;;;;5.90;99.90;;;;;;5036037;28;19948;-66
2022/01/11 14:32:48;;;;;;;;;;;5.80;99.90;;;;;;5035635;28;19939;-66
2022/01/11 14:35:14;;;;;;;;;;;5.80;99.90;;;;;;5035467;28;19905;-65
2022/01/11 14:37:40;;;;;;;;;;;5.80;99.90;;;;;;5035453;28;19912;-68